Time;durP1;ratioP1;P1;durP2;ratioP2;P2;SDS_P1;SDS_P2;PMS_P1;PMS_P2;Temp;Humidity;BMP_temperature;BMP_pressure;BME280_temperature;BME280_humidity;BME280_pressure;Samples;Min_cycle;Max_cycle;Signal;HPM_P1;HPM_P2
2021/07/04 00:00:37;;;;;;;6.97;5.35;;;16.60;64.80;;;16.40;49.78;94769.19;4908898;28;20617;-81
2021/07/04 00:03:05;;;;;;;6.30;5.45;;;16.60;65.20;;;16.42;49.26;94771.63;4791764;29;20202;-82
2021/07/04 00:07:43;;;;;;;5.75;5.00;;;16.60;65.10;;;16.39;49.36;94766.78;5149775;27;20632;-82
2021/07/04 00:10:14;;;;;;;5.75;4.82;;;16.60;65.00;;;16.40;49.57;94771.84;5095830;28;20217;-81
2021/07/04 00:12:41;;;;;;;8.40;5.68;;;16.60;65.40;;;16.39;49.62;94777.38;5031019;28;20246;-83
2021/07/04 00:15:12;;;;;;;6.72;5.32;;;16.60;65.30;;;16.38;50.00;94773.13;5077113;28;20312;-82
2021/07/04 00:17:38;;;;;;;6.18;5.30;;;16.60;65.80;;;16.36;50.02;94764.63;5057796;28;20231;-81
2021/07/04 00:20:09;;;;;;;8.13;5.68;;;16.60;65.50;;;16.35;50.00;94766.44;5037025;28;20638;-81
2021/07/04 00:22:36;;;;;;;6.70;5.63;;;16.60;66.00;;;16.33;50.25;94771.97;4987632;28;20228;-80
2021/07/04 00:25:07;;;;;;;6.28;5.25;;;16.50;65.60;;;16.31;50.35;94762.66;4829705;29;20246;-81
2021/07/04 00:29:09;;;;;;;6.28;5.32;;;16.50;66.00;;;16.28;49.95;94769.22;5144769;27;20634;-81
2021/07/04 00:31:36;;;;;;;6.90;5.82;;;16.50;65.60;;;16.28;50.51;94758.63;5104178;28;20551;-82
2021/07/04 00:34:03;;;;;;;7.15;5.65;;;16.50;65.80;;;16.31;50.88;94760.00;5087832;28;20237;-82
2021/07/04 00:36:30;;;;;;;6.60;5.60;;;16.50;66.00;;;16.34;50.81;94756.88;5062496;28;20199;-82
2021/07/04 00:38:57;;;;;;;7.55;5.72;;;16.50;66.00;;;16.36;51.12;94760.13;5033428;28;20229;-82
2021/07/04 00:41:25;;;;;;;6.80;5.60;;;16.50;66.30;;;16.39;50.83;94764.94;4977117;28;20212;-81
2021/07/04 00:43:52;;;;;;;6.10;5.38;;;16.50;66.30;;;16.40;50.72;94760.47;4952862;28;20219;-82
2021/07/04 00:46:18;;;;;;;7.78;5.75;;;16.50;66.40;;;16.41;51.03;94756.78;4844012;29;24099;-82
2021/07/04 00:51:22;;;;;;;6.85;6.03;;;16.50;66.40;;;16.44;51.68;94765.06;5142959;27;20337;-82
2021/07/04 00:53:49;;;;;;;7.18;6.30;;;16.50;66.70;;;16.48;52.74;94755.59;5104968;28;20232;-82
2021/07/04 00:56:16;;;;;;;9.85;6.72;;;16.60;67.20;;;16.60;53.08;94760.88;5099403;28;20211;-82
2021/07/04 00:58:43;;;;;;;7.97;6.32;;;16.60;67.50;;;16.72;52.54;94749.47;5066223;28;20190;-82
2021/07/04 01:01:10;;;;;;;6.82;6.13;;;16.60;67.40;;;16.83;52.26;94742.53;5048756;28;20657;-82
2021/07/04 01:03:38;;;;;;;9.05;6.03;;;16.70;67.50;;;16.88;51.86;94735.50;4985952;28;20786;-82
2021/07/04 01:06:05;;;;;;;8.15;5.75;;;16.80;67.40;;;16.93;51.45;94732.16;4943118;28;20319;-81
2021/07/04 01:08:32;;;;;;;7.07;5.72;;;16.80;67.20;;;16.90;50.86;94727.31;4834458;29;20219;-82
2021/07/04 01:13:47;;;;;;;6.32;5.45;;;16.90;66.90;;;16.80;51.21;94731.34;5140109;27;20648;-81
2021/07/04 01:16:16;;;;;;;6.10;5.20;;;16.90;66.60;;;16.73;51.07;94722.72;5050030;28;20664;-82
2021/07/04 01:18:46;;;;;;;7.15;5.75;;;16.90;66.60;;;16.66;51.08;94735.31;5066009;28;20328;-82
2021/07/04 01:21:22;;;;;;;6.28;5.30;;;16.80;66.50;;;16.56;51.50;94720.00;5049488;28;20656;-82
2021/07/04 01:23:50;;;;;;;6.53;5.32;;;16.80;66.60;;;16.53;51.67;94727.63;4978295;28;20246;-82
2021/07/04 01:26:17;;;;;;;6.55;5.55;;;16.80;66.70;;;16.49;51.93;94741.34;4864572;29;20209;-82
2021/07/04 01:28:43;;;;;;;7.15;6.45;;;16.70;66.70;;;16.48;52.49;94731.78;4858090;29;20219;-82
2021/07/04 01:31:11;;;;;;;7.78;6.90;;;16.70;67.00;;;16.53;53.28;94736.38;4805491;29;20748;-82
2021/07/04 01:35:59;;;;;;;7.28;6.25;;;16.70;67.40;;;16.64;52.73;94730.25;5150682;27;20633;-82
2021/07/04 01:38:30;;;;;;;7.68;5.88;;;16.80;67.60;;;16.71;52.26;94727.47;5101133;27;20201;-82
2021/07/04 01:40:59;;;;;;;7.78;5.55;;;16.80;67.60;;;16.71;52.10;94730.13;5070274;28;20190;-82
2021/07/04 01:43:27;;;;;;;7.00;5.97;;;16.80;67.50;;;16.70;51.63;94728.50;5067310;27;20337;-82
2021/07/04 01:45:53;;;;;;;7.32;5.85;;;16.80;67.50;;;16.68;52.19;94733.22;5102121;28;20752;-82
2021/07/04 01:48:20;;;;;;;6.40;5.50;;;16.80;67.30;;;16.62;52.15;94727.06;5057016;28;20194;-81
2021/07/04 01:50:50;;;;;;;7.18;5.97;;;16.80;67.20;;;16.60;52.13;94733.59;5010562;28;20235;-81
2021/07/04 01:53:22;;;;;;;8.18;5.70;;;16.80;67.30;;;16.54;52.31;94740.66;4835679;29;20681;-81
2021/07/04 01:58:51;;;;;;;6.55;5.85;;;16.80;67.20;;;16.40;51.98;94734.78;5146829;27;20723;-81
2021/07/04 02:01:29;;;;;;;6.20;5.60;;;16.70;67.10;;;16.34;51.96;94735.72;5090129;28;20205;-82
2021/07/04 02:03:56;;;;;;;8.48;5.97;;;16.60;67.20;;;16.33;53.03;94745.50;5060809;28;20347;-82
2021/07/04 02:06:23;;;;;;;8.10;6.50;;;16.60;67.60;;;16.36;53.76;94736.28;5042366;28;20195;-82
2021/07/04 02:08:50;;;;;;;8.30;6.53;;;16.60;68.00;;;16.42;53.56;94742.50;5022813;28;20221;-82
2021/07/04 02:11:21;;;;;;;7.60;6.18;;;16.60;68.20;;;16.48;53.40;94737.06;4931245;28;20267;-82
2021/07/04 02:13:53;;;;;;;7.10;6.40;;;16.60;68.20;;;16.55;53.27;94736.97;4784344;29;20596;-81
2021/07/04 02:16:32;;;;;;;8.27;6.30;;;16.60;68.20;;;16.58;53.33;94738.34;4566410;30;20709;-81
2021/07/04 02:19:10;;;;;;;7.82;6.07;;;16.70;68.40;;;16.57;53.02;94736.72;5138420;27;20323;-82
2021/07/04 02:21:55;;;;;;;6.32;5.65;;;16.70;68.10;;;16.57;52.92;94734.88;5074888;28;20391;-81
2021/07/04 02:24:42;;;;;;;6.93;5.78;;;16.60;67.90;;;16.52;52.84;94729.47;5082220;28;20225;-82
2021/07/04 02:27:30;;;;;;;6.68;5.70;;;16.70;67.90;;;16.48;52.68;94728.34;5002261;28;20263;-81
2021/07/04 02:30:05;;;;;;;6.10;5.50;;;16.60;67.80;;;16.46;52.61;94727.75;4985242;28;20285;-82
2021/07/04 02:32:34;;;;;;;8.43;5.85;;;16.60;67.80;;;16.43;52.78;94729.03;4973888;28;20293;-82
2021/07/04 02:35:04;;;;;;;6.80;5.50;;;16.60;67.90;;;16.40;53.27;94736.63;4947395;28;20335;-82
2021/07/04 02:38:52;;;;;;;8.93;5.47;;;16.60;68.30;;;16.32;52.91;94737.81;5147012;27;20633;-82
2021/07/04 02:41:21;;;;;;;7.85;6.15;;;16.60;68.00;;;16.30;53.01;94732.72;5059179;28;20569;-82
2021/07/04 02:43:47;;;;;;;8.65;6.68;;;16.50;69.10;;;16.34;53.74;94733.06;5099422;28;20194;-82
2021/07/04 02:46:17;;;;;;;7.40;5.90;;;16.60;68.30;;;16.38;53.48;94733.41;5045886;28;20207;-82
2021/07/04 02:48:43;;;;;;;8.32;6.82;;;16.50;68.40;;;16.42;54.05;94734.56;5025695;28;20212;-82
2021/07/04 02:51:11;;;;;;;7.97;6.57;;;16.50;68.60;;;16.46;54.04;94725.13;5007674;28;20221;-82
2021/07/04 02:53:37;;;;;;;7.75;6.05;;;16.50;68.60;;;16.54;54.12;94726.59;4983831;28;20215;-82
2021/07/04 02:56:13;;;;;;;7.55;5.97;;;16.60;68.80;;;16.57;54.38;94723.47;4831517;29;20212;-82
2021/07/04 03:00:47;;;;;;;7.57;5.90;;;16.60;69.00;;;16.61;53.80;94717.50;5126267;27;20921;-82
2021/07/04 03:03:17;;;;;;;8.95;5.97;;;16.70;68.60;;;16.65;53.86;94718.63;5087884;28;20193;-82
2021/07/04 03:05:47;;;;;;;6.55;5.75;;;16.70;68.80;;;16.71;53.74;94730.13;5079393;28;20229;-81
2021/07/04 03:08:14;;;;;;;9.02;6.68;;;16.80;68.80;;;16.73;53.49;94727.25;5071878;28;20252;-81
2021/07/04 03:10:41;;;;;;;7.25;6.18;;;16.80;68.90;;;16.74;53.52;94720.91;5050161;28;20231;-81
2021/07/04 03:13:09;;;;;;;7.45;6.20;;;16.70;68.80;;;16.73;53.58;94721.94;5020139;28;20662;-82
2021/07/04 03:15:37;;;;;;;7.70;6.13;;;16.80;68.80;;;16.71;53.20;94722.19;5000521;28;20261;-81
2021/07/04 03:18:05;;;;;;;7.40;5.43;;;16.80;68.70;;;16.71;53.70;94718.72;4777883;29;20224;-81
2021/07/04 03:21:59;;;;;;;7.30;5.85;;;16.80;68.60;;;16.67;53.53;94723.69;5138232;27;20949;-81
2021/07/04 03:24:25;;;;;;;7.40;5.88;;;16.80;68.40;;;16.63;53.13;94722.53;5093382;28;20212;-81
2021/07/04 03:26:53;;;;;;;7.53;5.93;;;16.80;68.60;;;16.64;53.71;94724.16;5074278;28;20215;-82
2021/07/04 03:29:20;;;;;;;6.28;5.65;;;16.80;68.60;;;16.64;53.26;94727.59;5031450;28;20311;-82
2021/07/04 03:31:48;;;;;;;9.48;6.20;;;16.80;68.60;;;16.65;53.48;94729.22;4988443;28;20205;-81
2021/07/04 03:34:16;;;;;;;7.85;5.90;;;16.80;68.70;;;16.65;53.47;94731.88;5016200;28;20255;-83
2021/07/04 03:36:45;;;;;;;8.68;5.75;;;16.70;68.80;;;16.67;53.71;94730.81;4860334;29;20575;-83
2021/07/04 03:39:13;;;;;;;8.32;6.05;;;16.80;68.80;;;16.69;53.71;94723.47;4794800;29;20244;-82
2021/07/04 03:44:10;;;;;;;5.93;5.35;;;16.80;68.90;;;16.72;53.49;94729.09;5145068;27;20416;-82
2021/07/04 03:46:41;;;;;;;7.28;6.40;;;16.80;69.00;;;16.72;53.64;94728.28;5081913;28;20207;-80
2021/07/04 03:49:08;;;;;;;6.25;5.45;;;16.80;69.10;;;16.74;53.80;94728.84;5094249;27;20224;-82
2021/07/04 03:51:44;;;;;;;6.97;5.88;;;16.80;69.20;;;16.73;53.61;94728.03;5088000;28;20208;-83
2021/07/04 03:54:13;;;;;;;6.35;5.60;;;16.80;69.30;;;16.76;53.38;94727.56;5060272;28;20227;-82
2021/07/04 03:56:41;;;;;;;7.82;6.07;;;16.90;69.30;;;16.77;53.72;94733.66;5077881;28;20199;-82
2021/07/04 03:59:11;;;;;;;6.57;5.40;;;16.80;69.30;;;16.75;53.83;94725.16;4960796;28;20226;-83
2021/07/04 04:01:40;;;;;;;6.82;6.15;;;16.80;69.20;;;16.79;53.80;94727.09;4498074;29;20294;-84
2021/07/04 04:06:06;;;;;;;9.65;6.13;;;16.80;70.20;;;16.80;53.48;94727.91;5126747;27;20644;-82
2021/07/04 04:08:40;;;;;;;7.20;5.72;;;16.80;69.20;;;16.85;53.60;94729.84;5063587;28;20202;-82
2021/07/04 04:11:08;;;;;;;8.65;6.45;;;16.90;69.40;;;16.89;53.92;94729.13;5033325;28;20263;-83
2021/07/04 04:13:42;;;;;;;7.85;6.40;;;16.90;69.50;;;16.94;53.96;94731.94;5046897;28;20218;-82
2021/07/04 04:16:15;;;;;;;7.50;6.43;;;16.90;69.60;;;17.01;54.09;94728.34;4979199;28;20694;-82
2021/07/04 04:18:44;;;;;;;7.78;6.05;;;17.00;69.70;;;17.09;54.03;94727.97;4932069;28;20313;-81
2021/07/04 04:21:12;;;;;;;7.25;6.05;;;17.00;69.80;;;17.15;54.07;94728.84;4915282;29;20291;-82
2021/07/04 04:24:48;;;;;;;7.28;5.70;;;17.10;69.80;;;17.16;54.17;94728.59;5136519;27;20583;-81
2021/07/04 04:27:18;;;;;;;6.57;5.82;;;17.10;69.70;;;17.22;54.38;94714.41;5059523;28;20237;-83
2021/07/04 04:29:46;;;;;;;6.47;5.78;;;17.10;70.10;;;17.28;54.41;94723.25;5046629;28;20318;-83
2021/07/04 04:32:15;;;;;;;7.10;6.00;;;17.20;70.20;;;17.34;54.22;94721.50;5056442;28;20209;-82
2021/07/04 04:34:43;;;;;;;6.75;5.97;;;17.30;70.20;;;17.43;54.47;94722.69;5029073;28;20255;-83
2021/07/04 04:37:11;;;;;;;6.30;5.68;;;17.40;70.30;;;17.51;54.92;94713.56;4949373;28;20215;-83
2021/07/04 04:39:38;;;;;;;7.88;6.13;;;17.40;70.50;;;17.60;54.46;94720.06;4891459;29;20320;-83
2021/07/04 04:42:05;;;;;;;8.30;6.45;;;17.50;70.60;;;17.68;54.40;94711.72;4808540;29;20220;-82
2021/07/04 04:44:42;;;;;;;9.20;5.80;;;17.50;70.60;;;17.76;54.16;94707.88;5138562;27;20809;-82
2021/07/04 04:47:09;;;;;;;7.78;6.05;;;17.60;70.60;;;17.83;54.51;94711.13;5094019;28;20220;-82
2021/07/04 04:49:36;;;;;;;8.05;5.68;;;17.60;70.60;;;17.93;54.73;94716.63;5121098;28;20236;-82
2021/07/04 04:52:04;;;;;;;6.50;5.50;;;17.70;70.70;;;18.03;54.57;94712.53;5079884;28;20667;-81
2021/07/04 04:54:31;;;;;;;7.53;6.10;;;17.80;70.90;;;18.14;54.50;94710.81;5046295;28;20681;-82
2021/07/04 04:57:05;;;;;;;6.72;5.82;;;17.90;70.90;;;18.23;54.42;94710.16;5020088;28;20194;-83
2021/07/04 04:59:38;;;;;;;6.90;5.55;;;18.00;70.90;;;18.37;54.65;94713.28;4879726;29;20264;-82
2021/07/04 05:02:05;;;;;;;7.57;6.03;;;18.10;71.40;;;18.48;54.52;94716.88;4788529;29;20575;-83
2021/07/04 05:07:29;;;;;;;7.00;6.13;;;18.30;71.30;;;18.73;54.11;94719.00;5147171;27;20578;-83
2021/07/04 05:09:56;;;;;;;6.05;5.45;;;18.40;71.30;;;18.85;54.58;94715.44;5111802;27;20215;-83
2021/07/04 05:12:23;;;;;;;6.57;5.82;;;18.50;71.50;;;18.97;54.44;94716.13;5104166;28;20217;-83
2021/07/04 05:14:50;;;;;;;7.65;6.50;;;18.60;71.60;;;19.11;54.70;94716.53;5010380;28;20233;-83
2021/07/04 05:17:17;;;;;;;6.65;5.95;;;18.70;72.60;;;19.25;54.42;94718.78;4952379;28;20252;-83
2021/07/04 05:19:44;;;;;;;6.28;5.68;;;18.80;71.70;;;19.38;54.16;94720.25;4885687;29;20232;-83
2021/07/04 05:22:10;;;;;;;8.80;6.18;;;19.00;71.80;;;19.52;54.79;94713.47;4874492;29;20206;-83
2021/07/04 05:24:37;;;;;;;6.40;5.80;;;19.00;71.70;;;19.65;54.40;94721.03;4767865;29;20323;-83
2021/07/04 05:29:41;;;;;;;6.75;5.78;;;19.20;71.90;;;19.93;54.54;94713.81;5136778;27;20571;-83
2021/07/04 05:32:11;;;;;;;7.13;6.22;;;19.40;72.00;;;20.09;54.21;94716.56;5081421;28;20208;-83
2021/07/04 05:34:38;;;;;;;7.45;5.90;;;19.50;72.00;;;20.19;54.74;94710.50;5073350;28;20318;-82
2021/07/04 05:37:05;;;;;;;7.03;6.32;;;19.70;72.10;;;20.35;54.57;94709.56;5064911;28;20242;-84
2021/07/04 05:39:31;;;;;;;6.85;6.13;;;19.80;72.10;;;20.49;54.61;94707.22;5037773;28;20247;-83
2021/07/04 05:41:58;;;;;;;7.40;6.05;;;19.90;72.20;;;20.64;54.38;94715.28;5009915;28;20244;-84
2021/07/04 05:44:24;;;;;;;6.50;5.75;;;20.10;72.20;;;20.78;54.56;94706.84;4974493;28;20231;-83
2021/07/04 05:46:51;;;;;;;6.88;6.00;;;20.20;72.20;;;20.91;54.66;94719.69;4850541;29;20224;-85
2021/07/04 05:51:37;;;;;;;6.80;6.10;;;20.30;72.30;;;21.13;54.24;94713.34;5143301;27;20624;-83
2021/07/04 05:54:04;;;;;;;7.95;6.28;;;20.60;72.50;;;21.27;54.57;94711.75;5118663;27;20705;-84
2021/07/04 05:56:30;;;;;;;7.80;7.00;;;20.70;72.30;;;21.39;54.30;94706.19;5085025;28;20254;-84
2021/07/04 05:58:57;;;;;;;7.07;6.22;;;20.80;72.30;;;21.50;54.08;94712.31;5035921;28;20566;-83
2021/07/04 06:01:24;;;;;;;7.35;6.63;;;20.90;72.20;;;21.61;54.29;94712.38;5017231;28;20223;-85
2021/07/04 06:03:51;;;;;;;8.15;6.80;;;21.00;72.10;;;21.70;54.46;94719.59;4986588;28;20229;-85
2021/07/04 06:06:17;;;;;;;7.28;6.28;;;21.10;72.10;;;21.80;54.24;94721.47;4962877;28;20210;-85
2021/07/04 06:08:44;;;;;;;7.38;6.30;;;21.30;72.10;;;21.86;54.25;94706.22;4914172;28;20584;-83
2021/07/04 06:14:03;;;;;;;7.10;6.43;;;21.40;71.90;;;22.10;54.22;94708.34;5131242;27;20655;-85
2021/07/04 06:16:30;;;;;;;9.00;6.88;;;21.60;71.90;;;22.23;54.07;94715.81;5107294;28;20233;-85
2021/07/04 06:18:56;;;;;;;7.20;6.20;;;21.70;71.90;;;22.33;53.69;94714.97;5085138;28;20238;-84
2021/07/04 06:21:24;;;;;;;6.88;6.18;;;21.80;71.80;;;22.48;53.88;94714.94;5084162;28;20208;-84
2021/07/04 06:23:51;;;;;;;7.65;6.38;;;21.90;71.60;;;22.65;53.63;94719.19;5052521;28;20226;-84
2021/07/04 06:26:17;;;;;;;7.13;6.43;;;22.00;71.50;;;22.81;53.43;94711.91;4975032;28;20664;-83
2021/07/04 06:28:44;;;;;;;6.85;6.15;;;22.10;71.50;;;22.93;53.28;94707.03;4880711;29;20219;-84
2021/07/04 06:31:10;;;;;;;7.32;6.45;;;22.20;71.50;;;23.13;53.16;94711.50;4798295;29;20642;-84
2021/07/04 06:35:00;;;;;;;7.05;6.00;;;22.30;71.30;;;23.38;53.11;94708.97;5127760;27;20584;-84
2021/07/04 06:37:27;;;;;;;6.45;5.85;;;22.60;71.20;;;23.53;52.88;94706.16;5103346;27;20204;-84
2021/07/04 06:39:54;;;;;;;8.93;6.45;;;22.70;70.90;;;23.70;52.22;94705.78;5080665;28;20775;-83
2021/07/04 06:42:20;;;;;;;6.47;5.88;;;22.90;70.80;;;23.85;52.10;94707.53;5009989;28;20218;-83
2021/07/04 06:44:48;;;;;;;6.90;6.20;;;23.00;70.60;;;24.01;51.94;94702.88;4922853;28;20216;-84
2021/07/04 06:47:15;;;;;;;6.18;5.57;;;23.20;70.20;;;24.17;51.49;94703.53;4764606;29;20275;-83
2021/07/04 06:49:42;;;;;;;7.20;5.78;;;23.30;70.20;;;24.30;51.63;94700.19;4685266;30;20241;-83
2021/07/04 06:52:08;;;;;;;6.20;5.60;;;23.50;70.00;;;24.47;50.84;94706.97;4585361;30;20723;-84
2021/07/04 06:55:40;;;;;;;8.13;5.82;;;23.60;69.00;;;24.60;49.46;94708.19;5131493;27;20659;-85
2021/07/04 06:58:07;;;;;;;5.93;5.22;;;23.80;68.10;;;24.67;49.54;94713.22;5105129;28;20573;-85
2021/07/04 07:00:34;;;;;;;6.22;5.63;;;23.90;67.80;;;24.63;48.01;94707.59;5108281;27;20295;-85
2021/07/04 07:03:00;;;;;;;6.93;6.22;;;24.00;66.70;;;24.57;47.92;94700.69;5087189;28;20210;-84
2021/07/04 07:05:27;;;;;;;6.35;5.75;;;24.10;66.70;;;24.54;48.50;94701.28;5003633;28;20225;-84
2021/07/04 07:07:54;;;;;;;6.07;5.47;;;24.10;66.70;;;24.49;48.04;94709.38;4910532;28;20322;-84
2021/07/04 07:10:21;;;;;;;5.97;5.40;;;24.10;66.70;;;24.46;47.51;94698.13;4744249;29;20245;-85
2021/07/04 07:12:48;;;;;;;6.25;5.65;;;24.10;66.00;;;24.42;47.83;94710.50;4594064;30;20258;-85
2021/07/04 07:17:20;;;;;;;6.72;5.15;;;24.10;66.40;;;24.49;48.36;94704.81;5137283;27;20607;-83
2021/07/04 07:19:47;;;;;;;6.03;5.43;;;24.10;66.70;;;24.57;48.38;94700.69;5103831;28;20223;-83
2021/07/04 07:22:19;;;;;;;5.80;5.30;;;24.10;66.70;;;24.61;48.42;94699.06;5026396;28;20245;-84
2021/07/04 07:24:47;;;;;;;6.03;5.22;;;24.10;66.70;;;24.68;47.53;94704.09;5035692;28;20223;-84
2021/07/04 07:27:14;;;;;;;5.82;5.32;;;24.10;66.00;;;24.72;47.84;94695.19;4947235;28;20305;-84
2021/07/04 07:29:41;;;;;;;6.18;5.65;;;24.20;66.20;;;24.78;47.40;94695.94;4857443;29;20304;-87
2021/07/04 07:32:10;;;;;;;5.80;5.30;;;24.20;65.80;;;24.81;47.11;94695.34;4708847;30;20216;-84
2021/07/04 07:34:36;;;;;;;8.23;5.80;;;24.30;65.80;;;24.84;47.13;94700.16;4543940;30;20714;-85
2021/07/04 07:39:02;;;;;;;6.93;6.22;;;24.30;65.70;;;24.80;46.52;94683.00;5135111;27;20577;-85
2021/07/04 07:41:39;;;;;;;6.53;5.60;;;24.40;65.20;;;24.83;47.04;94685.13;5075206;28;20653;-84
2021/07/04 07:44:06;;;;;;;6.47;5.82;;;24.40;65.30;;;24.92;46.64;94680.69;5060092;28;20234;-85
2021/07/04 07:46:32;;;;;;;7.10;6.35;;;24.40;65.10;;;25.03;46.12;94675.22;5067983;28;20306;-84
2021/07/04 07:48:59;;;;;;;6.90;6.20;;;24.50;65.00;;;25.17;46.27;94673.41;4991049;28;20632;-85
2021/07/04 07:51:42;;;;;;;5.82;5.28;;;24.50;65.00;;;25.37;46.70;94674.19;4906342;28;20669;-85
2021/07/04 07:54:12;;;;;;;6.63;6.03;;;24.60;65.60;;;25.58;46.29;94672.03;4811842;29;20237;-86
2021/07/04 07:56:38;;;;;;;6.25;5.65;;;24.70;65.50;;;25.77;45.56;94668.50;4635668;29;20288;-86
2021/07/04 07:59:16;;;;;;;8.93;6.05;;;24.90;65.00;;;25.91;45.47;94660.47;5129994;27;20328;-86
2021/07/04 08:01:43;;;;;;;6.28;5.60;;;25.00;64.70;;;26.05;45.36;94664.00;5070410;28;20239;-85
2021/07/04 08:04:11;;;;;;;6.18;5.57;;;25.10;65.00;;;26.19;45.51;94664.81;5022877;28;20236;-84
2021/07/04 08:06:38;;;;;;;6.72;6.03;;;25.30;64.70;;;26.24;44.44;94655.88;4991219;28;20230;-85
2021/07/04 08:09:07;;;;;;;7.50;6.25;;;25.40;64.00;;;26.30;44.19;94657.38;4950251;28;20235;-83
2021/07/04 08:11:46;;;;;;;6.53;5.78;;;25.50;63.80;;;26.38;44.90;94658.59;4886177;29;20217;-83
2021/07/04 08:14:14;;;;;;;5.70;5.20;;;25.60;64.30;;;26.49;44.74;94656.50;4834394;29;20251;-84
2021/07/04 08:16:46;;;;;;;6.18;5.57;;;25.70;64.20;;;26.61;45.17;94647.91;4663058;30;20370;-85
2021/07/04 08:20:58;;;;;;;6.80;6.10;;;25.80;64.30;;;26.68;44.19;94649.09;5131911;27;21167;-84
2021/07/04 08:23:24;;;;;;;6.38;5.75;;;26.00;63.60;;;26.70;43.77;94656.88;5104565;27;20667;-84
2021/07/04 08:25:51;;;;;;;5.80;5.30;;;26.10;63.40;;;26.63;43.39;94646.50;5072226;28;20253;-84
2021/07/04 08:28:18;;;;;;;6.25;5.43;;;26.10;62.90;;;26.57;43.92;94649.59;5034347;28;20213;-84
2021/07/04 08:30:46;;;;;;;6.15;5.55;;;26.10;63.00;;;26.51;44.01;94640.84;5013542;28;20228;-84
2021/07/04 08:33:13;;;;;;;6.88;6.25;;;26.10;62.80;;;26.40;43.82;94658.28;4901043;28;20287;-84
2021/07/04 08:35:40;;;;;;;6.82;5.90;;;26.00;62.50;;;26.27;42.90;94654.47;4799935;29;20289;-84
2021/07/04 08:38:07;;;;;;;6.40;5.75;;;26.00;61.50;;;26.16;43.22;94651.19;4686734;30;24058;-83
2021/07/04 08:43:10;;;;;;;6.03;5.53;;;25.90;61.70;;;26.10;43.23;94649.69;5147146;27;20637;-84
2021/07/04 08:45:38;;;;;;;6.22;5.63;;;25.80;61.80;;;26.03;42.88;94653.53;5088058;28;20634;-85
2021/07/04 08:48:06;;;;;;;6.38;5.68;;;25.80;61.40;;;26.04;43.37;94652.44;5037713;28;20296;-84
2021/07/04 08:50:34;;;;;;;6.90;5.55;;;25.80;61.90;;;26.11;43.20;94644.03;5080827;28;20220;-84
2021/07/04 08:53:00;;;;;;;6.20;5.60;;;25.70;61.80;;;26.22;43.05;94639.25;5084574;28;20215;-84
2021/07/04 08:55:28;;;;;;;6.00;5.40;;;25.80;61.90;;;26.37;43.06;94654.28;5033044;28;20247;-85
2021/07/04 08:57:57;;;;;;;6.03;5.40;;;25.80;61.90;;;26.51;42.65;94644.34;4971114;28;20208;-84
2021/07/04 09:00:26;;;;;;;5.93;5.32;;;25.90;61.90;;;26.63;42.63;94649.19;4554323;29;20256;-84
2021/07/04 09:03:25;;;;;;;5.85;5.28;;;26.00;61.60;;;26.74;42.36;94649.00;5147716;27;20308;-84
2021/07/04 09:05:52;;;;;;;5.80;5.20;;;26.10;61.70;;;26.89;42.93;94648.72;5065030;28;20246;-85
2021/07/04 09:08:23;;;;;;;5.60;5.10;;;26.20;62.00;;;27.07;42.06;94640.78;5068023;28;20206;-86
2021/07/04 09:11:28;;;;;;;6.30;5.43;;;26.30;61.60;;;27.27;42.29;94648.41;5045144;28;20222;-86
2021/07/04 09:13:55;;;;;;;6.70;5.97;;;26.50;62.30;;;27.41;42.17;94648.38;4927011;28;20240;-85
2021/07/04 09:16:23;;;;;;;6.32;5.72;;;26.60;61.90;;;27.48;41.75;94643.34;4979780;28;20219;-84
2021/07/04 09:19:10;;;;;;;6.18;5.60;;;26.70;61.60;;;27.56;42.20;94655.31;4748238;29;20283;-87
2021/07/04 09:23:39;;;;;;;5.90;5.25;;;26.80;61.60;;;27.59;42.11;94646.59;5131141;27;20653;-84
2021/07/04 09:26:06;;;;;;;6.25;5.65;;;27.00;61.30;;;27.67;42.10;94652.34;5069491;28;20209;-84
2021/07/04 09:28:32;;;;;;;6.07;5.53;;;27.00;61.30;;;27.74;41.76;94648.13;5042111;28;20221;-85
2021/07/04 09:30:59;;;;;;;5.97;5.47;;;27.10;61.30;;;27.81;41.96;94650.38;5027404;28;20249;-84
2021/07/04 09:33:31;;;;;;;5.95;5.40;;;27.10;61.60;;;27.84;41.32;94657.06;5023225;28;20213;-84
2021/07/04 09:36:09;;;;;;;6.20;5.60;;;27.20;60.50;;;27.73;40.96;94643.03;4984992;28;20220;-85
2021/07/04 09:38:43;;;;;;;5.80;5.18;;;27.20;60.00;;;27.63;40.67;94639.47;4893784;28;20219;-85
2021/07/04 09:42:11;;;;;;;5.50;5.00;;;27.20;59.80;;;27.58;40.76;94638.84;5122122;27;20581;-84
2021/07/04 09:44:39;;;;;;;6.10;5.50;;;27.20;59.90;;;27.60;40.38;94639.31;5070829;28;20251;-85
2021/07/04 09:47:21;;;;;;;6.13;5.53;;;27.20;59.50;;;27.62;40.76;94635.22;5040059;28;20308;-85
2021/07/04 09:49:49;;;;;;;6.80;5.85;;;27.20;60.00;;;27.63;40.76;94631.41;5000607;28;20222;-86
2021/07/04 09:52:18;;;;;;;6.68;5.82;;;27.20;60.00;;;27.64;40.80;94624.91;4997993;28;20294;-84
2021/07/04 09:54:57;;;;;;;6.13;5.53;;;27.20;59.70;;;27.74;40.72;94623.06;4952185;28;20231;-85
2021/07/04 09:57:25;;;;;;;6.25;5.45;;;27.20;59.90;;;27.89;40.52;94628.09;4704989;29;20228;-84
2021/07/04 10:03:19;;;;;;;6.43;5.82;;;27.30;60.20;;;28.43;41.01;94624.53;5131314;27;20547;-86
2021/07/04 10:05:54;;;;;;;5.68;5.18;;;27.50;60.60;;;28.70;40.66;94615.41;5049857;28;20229;-85
2021/07/04 10:08:48;;;;;;;5.80;5.25;;;27.70;60.80;;;28.95;40.38;94615.75;5071748;28;20207;-84
2021/07/04 10:11:16;;;;;;;7.72;4.93;;;27.90;60.30;;;29.18;40.23;94613.69;5044665;28;20216;-82
2021/07/04 10:13:47;;;;;;;5.53;5.03;;;28.10;60.70;;;29.35;38.70;94612.94;5065735;28;20212;-84
2021/07/04 10:16:17;;;;;;;5.82;5.32;;;28.30;58.70;;;29.41;38.35;94604.66;4984098;28;20364;-84
2021/07/04 10:18:48;;;;;;;6.07;5.47;;;28.40;58.10;;;29.53;38.93;94604.81;4950081;28;20219;-84
2021/07/04 10:22:37;;;;;;;5.13;4.68;;;28.60;58.40;;;29.73;38.74;94591.75;5150749;27;20644;-86
2021/07/04 10:25:08;;;;;;;5.35;4.85;;;28.80;58.90;;;29.89;39.11;94592.78;5080219;28;20226;-86
2021/07/04 10:27:38;;;;;;;5.47;4.97;;;28.90;58.80;;;30.00;39.15;94585.97;5042563;28;20206;-86
2021/07/04 10:30:07;;;;;;;6.00;4.55;;;29.00;59.80;;;30.13;38.97;94578.75;5048755;28;20226;-85
2021/07/04 10:32:34;;;;;;;5.40;4.90;;;29.10;58.00;;;30.24;38.62;94576.47;4953774;28;20300;-85
2021/07/04 10:35:11;;;;;;;7.10;5.38;;;29.30;58.00;;;30.36;38.13;94575.78;4931577;28;20233;-85
2021/07/04 10:37:39;;;;;;;7.13;4.95;;;29.40;57.80;;;30.45;37.82;94579.22;4901759;29;20225;-85
2021/07/04 10:40:42;;;;;;;5.82;5.22;;;29.50;57.30;;;30.47;38.22;94571.56;4752929;29;20239;-85
2021/07/04 10:43:58;;;;;;;5.07;4.60;;;29.60;57.70;;;30.52;37.72;94578.75;5148718;27;20380;-85
2021/07/04 10:46:40;;;;;;;5.03;4.60;;;29.70;57.10;;;30.49;37.28;94568.53;5051197;28;20293;-86
2021/07/04 10:49:39;;;;;;;5.43;4.82;;;29.80;56.80;;;30.45;36.94;94571.09;5021440;28;20591;-85
2021/07/04 10:52:17;;;;;;;4.78;4.38;;;29.80;55.80;;;30.42;37.31;94573.66;4989107;28;20219;-85
2021/07/04 10:54:53;;;;;;;4.88;4.47;;;29.80;55.00;;;30.39;36.30;94575.09;4964680;28;20320;-85
2021/07/04 10:57:34;;;;;;;4.70;4.30;;;29.80;54.90;;;30.32;36.31;94574.81;4844003;29;20211;-85
2021/07/04 11:00:04;;;;;;;4.88;4.47;;;29.80;55.50;;;30.20;36.99;94567.44;4708739;29;20259;-85
2021/07/04 11:05:38;;;;;;;4.97;4.57;;;29.70;54.90;;;30.11;36.79;94553.91;5136181;27;20670;-86
2021/07/04 11:08:31;;;;;;;6.03;4.70;;;29.60;54.90;;;30.09;36.27;94556.19;5101389;28;20210;-85
2021/07/04 11:11:09;;;;;;;4.68;4.20;;;29.60;54.70;;;30.05;36.83;94565.25;5091253;28;20208;-85
2021/07/04 11:13:46;;;;;;;5.18;4.68;;;29.50;54.80;;;29.91;35.92;94552.75;5076567;28;20210;-85
2021/07/04 11:16:18;;;;;;;7.72;4.65;;;29.50;54.40;;;29.80;36.66;94546.88;5055874;28;20219;-84
2021/07/04 11:18:55;;;;;;;4.50;4.10;;;29.40;54.40;;;29.69;35.78;94545.66;4952180;28;20650;-85
2021/07/04 11:21:47;;;;;;;4.80;4.35;;;29.30;53.40;;;29.56;35.92;94552.81;4768823;29;20221;-86
2021/07/04 11:27:27;;;;;;;5.43;3.97;;;29.20;53.40;;;29.23;36.09;94539.81;5150047;27;20567;-86
2021/07/04 11:30:18;;;;;;;4.93;4.53;;;29.00;54.10;;;29.07;36.42;94539.53;5015677;28;20766;-85
2021/07/04 11:32:45;;;;;;;4.47;4.07;;;28.80;54.00;;;28.99;36.41;94541.13;5070731;28;20635;-86